createdAt,value
2019-04-23T00:00:56.239Z,97791.91
2019-04-23T00:02:06.608Z,97791.22
2019-04-23T00:03:16.826Z,97790.56
2019-04-23T00:04:20.435Z,97796.63
2019-04-23T00:05:39.465Z,97795.27
2019-04-23T00:06:39.909Z,97797.53
2019-04-23T00:08:48.769Z,97796.98
2019-04-23T00:09:48.283Z,97801.13
2019-04-23T00:10:59.156Z,97797.75
2019-04-23T00:11:59.889Z,97801.92
2019-04-23T00:13:02.324Z,97806.17
2019-04-23T00:14:15.099Z,97806.06
2019-04-23T00:15:13.569Z,97804.84
2019-04-23T00:16:23.724Z,97805.63
2019-04-23T00:17:30.460Z,97815.73
2019-04-23T00:18:36.846Z,97816.42
2019-04-23T00:19:39.752Z,97817.30
2019-04-23T00:20:42.987Z,97819.77
2019-04-23T00:21:46.032Z,97828.31
2019-04-23T00:24:15.849Z,97841.42
2019-04-23T00:26:40.290Z,97843.25
2019-04-23T00:28:50.469Z,97842.78
2019-04-23T00:29:56.030Z,97848.97
2019-04-23T00:31:59.630Z,97858.31
2019-04-23T00:33:15.671Z,97864.93
2019-04-23T00:34:09.238Z,97868.98
2019-04-23T00:35:12.886Z,97875.25
2019-04-23T00:36:27.214Z,97863.34
2019-04-23T00:39:44.000Z,97878.45
2019-04-23T00:40:45.376Z,97879.41
2019-04-23T00:41:50.862Z,97878.05
2019-04-23T00:42:53.466Z,97882.81
2019-04-23T00:44:04.069Z,97877.42
2019-04-23T00:45:03.424Z,97877.73
2019-04-23T00:46:09.211Z,97890.42
2019-04-23T00:47:22.369Z,97890.42
2019-04-23T00:48:28.248Z,97897.78
2019-04-23T00:49:27.030Z,97897.78
2019-04-23T00:50:38.507Z,97895.95
2019-04-23T00:51:36.835Z,97898.64
2019-04-23T00:52:48.761Z,97903.37
2019-04-23T00:53:46.698Z,97910.11
2019-04-23T00:54:57.254Z,97914.58
2019-04-23T00:57:07.321Z,97915.87
2019-04-23T00:58:12.472Z,97924.56
2019-04-23T00:59:12.460Z,97926.54
2019-04-23T01:00:28.151Z,97926.54
2019-04-23T01:03:33.894Z,97934.59
2019-04-23T01:04:51.020Z,97940.06
2019-04-23T01:05:46.915Z,97949.70
2019-04-23T01:07:01.140Z,97949.70
2019-04-23T01:08:01.844Z,97957.17
2019-04-23T01:09:03.732Z,97960.34
2019-04-23T01:11:27.714Z,97961.06
2019-04-23T01:12:38.070Z,97960.58
2019-04-23T01:13:46.847Z,97958.83
2019-04-23T01:14:52.023Z,97956.93
2019-04-23T01:15:57.761Z,97963.52
2019-04-23T01:16:49.495Z,97966.86
2019-04-23T01:18:10.921Z,97960.83
2019-04-23T01:19:17.691Z,97961.79
2019-04-23T01:20:20.988Z,97966.37
2019-04-23T01:21:13.854Z,97966.45
2019-04-23T01:22:19.414Z,97965.28
2019-04-23T01:23:47.050Z,97962.51
2019-04-23T01:25:11.113Z,97965.92
2019-04-23T01:26:23.995Z,97964.25
2019-04-23T01:28:50.292Z,97961.91
2019-04-23T01:29:57.934Z,97959.62
2019-04-23T01:31:07.758Z,97959.45
2019-04-23T01:32:10.997Z,97954.85
2019-04-23T01:33:10.987Z,97954.70
2019-04-23T01:34:20.163Z,97957.70
2019-04-23T01:35:20.234Z,97961.13
2019-04-23T01:36:28.118Z,97965.55
2019-04-23T01:37:30.471Z,97963.32
2019-04-23T01:38:40.510Z,97963.97
2019-04-23T01:39:43.879Z,97967.85
2019-04-23T01:40:45.890Z,97958.98
2019-04-23T01:42:03.727Z,97956.75
2019-04-23T01:42:58.708Z,97951.47
2019-04-23T01:44:05.277Z,97955.02
2019-04-23T01:46:24.974Z,97949.37
2019-04-23T01:47:25.018Z,97948.52
2019-04-23T01:48:29.979Z,97951.84
2019-04-23T01:49:39.279Z,97951.60
2019-04-23T01:50:43.475Z,97948.27
2019-04-23T01:51:49.769Z,97940.11
2019-04-23T01:52:45.578Z,97943.99
2019-04-23T01:54:12.392Z,97945.03
2019-04-23T01:55:00.883Z,97943.98
2019-04-23T01:56:11.407Z,97947.38
2019-04-23T01:57:16.616Z,97949.45
2019-04-23T01:59:24.651Z,97952.63
2019-04-23T02:00:28.696Z,97949.55
2019-04-23T02:01:34.368Z,97941.80
2019-04-23T02:02:45.740Z,97944.57
2019-04-23T02:03:46.588Z,97944.79
2019-04-23T02:04:52.614Z,97939.11
2019-04-23T02:06:03.291Z,97939.16
2019-04-23T02:09:13.387Z,97941.99
2019-04-23T02:10:31.202Z,97945.23
2019-04-23T02:11:16.431Z,97943.93
2019-04-23T02:12:33.079Z,97940.45
2019-04-23T02:13:53.281Z,97941.88
2019-04-23T02:14:44.784Z,97944.97
2019-04-23T02:15:42.457Z,97941.85
2019-04-23T02:16:49.928Z,97946.69
2019-04-23T02:17:58.600Z,97940.94
2019-04-23T02:19:03.401Z,97937.58
2019-04-23T02:20:09.927Z,97930.79
2019-04-23T02:21:10.615Z,97933.23
2019-04-23T02:22:38.937Z,97928.71
2019-04-23T02:23:43.895Z,97938.13
2019-04-23T02:24:54.585Z,97938.13
2019-04-23T02:26:55.902Z,97945.88
2019-04-23T02:29:26.626Z,97949.06
2019-04-23T02:30:40.090Z,97943.93
2019-04-23T02:32:42.351Z,97953.34
2019-04-23T02:35:52.763Z,97950.22
2019-04-23T02:36:55.003Z,97950.22
2019-04-23T02:38:11.786Z,97954.00
2019-04-23T02:38:56.216Z,97951.61
2019-04-23T02:40:13.983Z,97955.03
2019-04-23T09:09:27.691Z,97980.58
2019-04-23T09:11:41.666Z,97990.75
2019-04-23T09:14:52.406Z,97997.12
2019-04-23T09:15:56.557Z,97999.92
2019-04-23T09:17:06.162Z,97993.04
2019-04-23T09:18:11.769Z,98000.83
2019-04-23T09:19:16.115Z,97997.89
2019-04-23T09:21:21.471Z,98003.47
2019-04-23T09:22:31.165Z,98001.89
2019-04-23T09:24:41.521Z,97999.78
2019-04-23T09:26:56.195Z,97998.59
2019-04-23T09:27:54.785Z,98000.14
2019-04-23T09:28:57.992Z,97998.94
2019-04-23T09:30:22.919Z,98000.91
2019-04-23T09:31:30.372Z,98006.65
2019-04-23T09:32:25.190Z,98009.13
2019-04-23T09:33:39.403Z,98012.07
2019-04-23T09:34:56.932Z,98009.13
2019-04-23T09:36:06.801Z,98016.28
2019-04-23T09:37:18.773Z,98010.30
2019-04-23T09:38:28.033Z,98000.89
2019-04-23T09:41:05.918Z,97999.03
2019-04-23T09:42:04.888Z,97999.80
2019-04-23T09:44:41.393Z,98002.25
2019-04-23T09:45:38.584Z,97996.53
2019-04-23T09:46:57.074Z,97991.25
2019-04-23T09:49:19.003Z,97998.88
2019-04-23T09:51:17.926Z,97989.80
2019-04-23T09:52:21.947Z,97983.84
2019-04-23T09:54:37.884Z,97963.93
2019-04-23T09:56:42.795Z,97967.36
2019-04-23T09:57:51.461Z,97968.50
2019-04-23T09:58:59.109Z,97979.09
2019-04-23T09:59:58.166Z,97972.94
2019-04-23T10:01:26.016Z,97973.47
2019-04-23T10:02:23.726Z,97956.31
2019-04-23T10:03:21.244Z,97968.20
2019-04-23T10:04:25.147Z,97951.91
2019-04-23T10:05:28.835Z,97955.20
2019-04-23T10:06:28.302Z,97949.59
2019-04-23T10:07:40.518Z,97951.28
2019-04-23T10:08:40.240Z,97958.81
2019-04-23T10:09:42.398Z,97957.58
2019-04-23T10:10:47.177Z,97963.45
2019-04-23T10:11:51.246Z,97966.55
2019-04-23T10:12:55.746Z,97958.79
2019-04-23T10:14:00.742Z,97961.75
2019-04-23T10:15:13.736Z,97965.84
2019-04-23T10:16:17.059Z,97956.08
2019-04-23T10:17:18.072Z,97956.84
2019-04-23T10:18:22.431Z,97944.92
2019-04-23T10:19:26.893Z,97948.69
2019-04-23T10:20:30.917Z,97961.14
2019-04-23T10:21:35.284Z,97949.38
2019-04-23T10:22:39.530Z,97954.81
2019-04-23T10:23:43.383Z,97954.59
2019-04-23T10:24:47.071Z,97956.41
2019-04-23T10:25:52.077Z,97958.56
2019-04-23T10:26:57.676Z,97956.55
2019-04-23T10:28:06.910Z,97960.48
2019-04-23T10:29:09.900Z,97962.41
2019-04-23T10:30:14.469Z,97976.97
2019-04-23T10:31:18.754Z,97983.06
2019-04-23T10:32:22.728Z,97970.43
2019-04-23T10:33:27.645Z,97978.98
2019-04-23T10:34:43.019Z,97984.66
2019-04-23T10:35:47.153Z,97981.33
2019-04-23T10:36:42.687Z,97987.06
2019-04-23T10:37:54.695Z,97997.47
2019-04-23T10:39:00.549Z,98003.00
2019-04-23T10:40:00.898Z,98004.55
2019-04-23T10:41:04.402Z,98009.78
2019-04-23T10:42:09.923Z,98016.87
2019-04-23T10:43:15.066Z,98011.67
2019-04-23T10:44:21.491Z,98008.32
2019-04-23T10:45:51.385Z,97997.20
2019-04-23T10:47:02.713Z,98003.79
2019-04-23T10:49:47.696Z,97986.20
2019-04-23T10:50:59.692Z,97992.71
2019-04-23T10:52:07.106Z,97977.57
2019-04-23T10:53:19.493Z,97977.56
2019-04-23T10:55:27.889Z,97982.50
2019-04-23T10:56:27.205Z,97977.61
2019-04-23T10:57:25.074Z,97974.59
2019-04-23T10:58:35.311Z,97996.15
2019-04-23T10:59:43.570Z,97983.02
2019-04-23T11:00:53.434Z,97982.11
2019-04-23T11:02:10.502Z,97977.54
2019-04-23T11:03:09.993Z,97967.88
2019-04-23T11:05:35.663Z,97975.98
2019-04-23T11:06:36.426Z,97961.65
2019-04-23T11:09:52.601Z,97959.92
2019-04-23T11:10:46.340Z,97951.59
2019-04-23T11:12:03.973Z,97954.99
2019-04-23T11:13:12.169Z,97960.64
2019-04-23T11:14:19.531Z,97962.02
2019-04-23T11:16:50.765Z,97944.67
2019-04-23T11:17:34.741Z,97938.11
2019-04-23T11:18:46.871Z,97947.14
2019-04-23T11:20:41.206Z,97953.43
2019-04-23T11:21:58.226Z,97943.27
2019-04-23T11:24:10.980Z,97950.73
2019-04-23T11:25:20.483Z,97943.27
2019-04-23T11:26:22.939Z,97945.50
2019-04-23T11:27:22.282Z,97947.07
2019-04-23T11:28:29.306Z,97940.55
2019-04-23T11:29:34.198Z,97952.48
2019-04-23T11:30:36.155Z,97955.39
2019-04-23T11:32:53.938Z,97954.73
2019-04-23T11:35:15.792Z,97961.80
2019-04-23T11:36:33.243Z,97952.30
2019-04-23T11:37:14.482Z,97939.88
2019-04-23T11:38:44.485Z,97936.92
2019-04-23T11:39:23.187Z,97922.78
2019-04-23T11:41:48.862Z,97931.03
2019-04-23T11:42:46.484Z,97932.36
2019-04-23T11:43:40.352Z,97933.23
2019-04-23T11:44:49.983Z,97938.17
2019-04-23T11:45:57.569Z,97935.98
2019-04-23T11:47:04.213Z,97945.46
2019-04-23T11:52:36.531Z,97938.83
2019-04-23T11:53:35.574Z,97927.27
2019-04-23T11:54:36.020Z,97930.27
2019-04-23T11:55:49.312Z,97929.68
2019-04-23T11:57:15.014Z,97933.41
2019-04-23T11:58:13.754Z,97925.47
2019-04-23T11:59:12.277Z,97923.47
2019-04-23T12:00:06.118Z,97926.77
2019-04-23T12:01:23.630Z,97931.69
2019-04-23T12:02:32.496Z,97938.83
2019-04-23T12:03:41.857Z,97931.88
2019-04-23T12:04:49.926Z,97930.48
2019-04-23T12:07:25.955Z,97930.66
2019-04-23T12:10:07.741Z,97941.05
2019-04-23T12:11:36.084Z,97941.79
2019-04-23T12:12:11.253Z,97942.79
2019-04-23T12:13:21.246Z,97942.58
2019-04-23T12:14:37.160Z,97950.27
2019-04-23T12:15:32.550Z,97948.81
2019-04-23T12:16:55.608Z,97961.41
2019-04-23T12:17:41.150Z,97952.61
2019-04-23T12:19:14.340Z,97962.98
2019-04-23T12:21:20.147Z,97965.52
2019-04-23T12:23:40.536Z,97976.11
2019-04-23T12:26:53.522Z,97980.66
2019-04-23T12:27:39.815Z,97972.58
2019-04-23T12:28:57.079Z,97977.77
2019-04-23T12:30:01.306Z,97986.31
2019-04-23T12:31:10.016Z,97984.44
2019-04-23T12:32:41.830Z,97984.06
2019-04-23T12:33:36.121Z,97976.60
2019-04-23T12:34:47.056Z,97980.47
2019-04-23T12:35:33.830Z,97971.70
2019-04-23T12:36:46.701Z,97962.88
2019-04-23T12:37:55.483Z,97966.00
2019-04-23T12:39:04.489Z,97961.52
2019-04-23T12:40:15.112Z,97954.28
2019-04-23T12:41:14.096Z,97953.63
2019-04-23T12:42:41.336Z,97956.52
2019-04-23T12:43:20.657Z,97949.52
2019-04-23T12:44:30.623Z,97951.75
2019-04-23T12:45:37.458Z,97950.87
2019-04-23T12:47:59.903Z,97956.30
2019-04-23T12:49:00.963Z,97957.89
2019-04-23T12:50:38.759Z,97953.51
2019-04-23T12:50:58.679Z,97950.70
2019-04-23T12:52:12.108Z,97948.46
2019-04-23T12:53:24.372Z,97949.13
2019-04-23T12:54:38.470Z,97949.81
2019-04-23T12:55:31.953Z,97947.11
2019-04-23T12:56:42.213Z,97955.23
2019-04-23T12:58:36.054Z,97954.67
2019-04-23T13:00:48.398Z,97945.89
2019-04-23T13:03:18.941Z,97934.06
2019-04-23T13:04:09.696Z,97919.75
2019-04-23T13:05:18.144Z,97912.66
2019-04-23T13:06:16.954Z,97900.02
2019-04-23T13:07:36.975Z,97880.84
2019-04-23T13:08:41.472Z,97876.45
2019-04-23T13:09:49.130Z,97869.23
2019-04-23T13:11:01.064Z,97885.58
2019-04-23T13:11:50.008Z,97895.98
2019-04-23T13:13:11.314Z,97922.98
2019-04-23T13:14:06.963Z,97912.08
2019-04-23T13:15:11.613Z,97905.56
2019-04-23T13:18:23.636Z,97904.02
2019-04-23T13:19:39.839Z,97900.87
2019-04-23T13:20:32.383Z,97895.72
2019-04-23T13:22:00.634Z,97888.05
2019-04-23T13:23:47.498Z,97891.33
2019-04-23T13:25:02.041Z,97883.45
2019-04-23T13:26:04.104Z,97883.91
2019-04-23T13:27:23.961Z,97885.38
2019-04-23T13:28:23.585Z,97874.33
2019-04-23T13:29:41.085Z,97868.02
2019-04-23T13:31:34.663Z,97864.52
2019-04-23T13:32:55.571Z,97859.47
2019-04-23T13:33:51.531Z,97856.86
2019-04-23T13:35:08.454Z,97858.99
2019-04-23T13:37:13.978Z,97842.58
2019-04-23T13:38:28.553Z,97843.03
2019-04-23T13:39:24.474Z,97846.84
2019-04-23T13:40:32.164Z,97832.44
2019-04-23T13:41:33.524Z,97834.02
2019-04-23T13:42:45.317Z,97827.46
2019-04-23T13:44:49.988Z,97828.61
2019-04-23T13:47:00.509Z,97836.26
2019-04-23T13:48:06.792Z,97829.96
2019-04-23T13:49:09.995Z,97831.41
2019-04-23T13:51:34.249Z,97847.07
2019-04-23T13:52:51.639Z,97844.59
2019-04-23T13:53:49.611Z,97859.69
2019-04-23T13:54:54.848Z,97869.48
2019-04-23T13:55:42.519Z,97873.19
2019-04-23T13:59:03.630Z,97859.55
2019-04-23T14:00:08.699Z,97849.09
2019-04-23T14:01:20.129Z,97849.98
2019-04-23T14:03:32.225Z,97842.65
2019-04-23T14:04:38.881Z,97852.34
2019-04-23T14:05:45.386Z,97851.66
2019-04-23T14:06:47.524Z,97845.16
2019-04-23T14:07:57.065Z,97838.96
2019-04-23T14:08:59.859Z,97829.95
2019-04-23T14:10:13.932Z,97824.22
2019-04-23T14:12:20.376Z,97819.61
2019-04-23T14:13:37.315Z,97809.36
2019-04-23T14:14:41.955Z,97808.67
2019-04-23T14:15:54.020Z,97808.34
2019-04-23T14:16:51.925Z,97800.00
2019-04-23T14:20:09.975Z,97785.02
2019-04-23T14:22:48.794Z,97796.63
2019-04-23T14:24:28.145Z,97795.69
2019-04-23T14:25:41.436Z,97786.69
2019-04-23T14:26:39.591Z,97778.91
2019-04-23T14:27:56.335Z,97770.57
2019-04-23T14:30:07.225Z,97765.06
2019-04-23T14:31:08.031Z,97774.99
2019-04-23T14:32:18.681Z,97762.35
2019-04-23T14:33:17.505Z,97759.75
2019-04-23T14:34:21.107Z,97776.29
2019-04-23T14:35:40.334Z,97780.56
2019-04-23T14:37:59.050Z,97767.34
2019-04-23T14:38:43.934Z,97769.56
2019-04-23T14:39:46.440Z,97771.88
2019-04-23T14:41:05.359Z,97755.73
2019-04-23T14:42:16.675Z,97761.88
2019-04-23T14:43:12.163Z,97765.35
2019-04-23T14:44:19.857Z,97767.50
2019-04-23T14:47:39.769Z,97757.01
2019-04-23T14:50:12.526Z,97759.13
2019-04-23T14:51:00.527Z,97764.31
2019-04-23T14:52:00.291Z,97761.60
2019-04-23T14:53:16.136Z,97760.73
2019-04-23T14:54:17.317Z,97769.77
2019-04-23T14:56:32.419Z,97769.77
2019-04-23T14:58:44.071Z,97771.02
2019-04-23T14:59:45.094Z,97775.05
2019-04-23T15:01:06.916Z,97774.89
2019-04-23T15:02:00.866Z,97776.21
2019-04-23T15:03:07.889Z,97780.55
2019-04-23T15:04:02.079Z,97790.48
2019-04-23T15:05:17.557Z,97788.03
2019-04-23T15:06:29.445Z,97794.03
2019-04-23T15:08:30.229Z,97798.20
2019-04-23T15:10:57.057Z,97806.52
2019-04-23T15:11:53.469Z,97805.25
2019-04-23T15:15:24.000Z,97822.27
2019-04-23T15:18:35.375Z,97827.52
2019-04-23T15:19:56.537Z,97834.73
2019-04-23T15:21:34.144Z,97845.91
2019-04-23T15:22:15.785Z,97847.98
2019-04-23T15:23:37.646Z,97855.19
2019-04-23T15:24:27.631Z,97854.19
2019-04-23T15:25:40.337Z,97859.52
2019-04-23T15:28:26.500Z,97871.02
2019-04-23T15:29:42.095Z,97877.22
2019-04-23T15:31:04.100Z,97879.59
2019-04-23T15:32:05.355Z,97895.14
2019-04-23T15:34:13.772Z,97899.19
2019-04-23T15:35:32.040Z,97908.36
2019-04-23T15:37:43.122Z,97919.56
2019-04-23T15:38:43.070Z,97924.29
2019-04-23T15:39:49.421Z,97916.97
2019-04-23T15:40:53.325Z,97921.27
2019-04-23T15:42:08.907Z,97910.13
2019-04-23T15:43:02.518Z,97906.30
2019-04-23T15:44:08.753Z,97900.00
2019-04-23T15:45:11.245Z,97901.80
2019-04-23T15:46:24.097Z,97904.70
2019-04-23T15:48:26.370Z,97910.95
2019-04-23T15:50:46.071Z,97899.88
2019-04-23T15:51:54.584Z,97896.48
2019-04-23T15:52:54.244Z,97903.63
2019-04-23T15:53:56.461Z,97899.13
2019-04-23T15:56:16.413Z,97899.59
2019-04-23T15:57:07.369Z,97895.44
2019-04-23T15:58:28.169Z,97892.97
2019-04-23T15:59:31.446Z,97908.34
2019-04-23T16:00:22.476Z,97908.11
2019-04-23T16:02:10.047Z,97911.27
2019-04-23T16:03:15.611Z,97910.03
2019-04-23T16:04:20.070Z,97911.52
2019-04-23T16:05:25.775Z,97911.61
2019-04-23T16:06:32.730Z,97917.62
2019-04-23T16:07:54.966Z,97921.22
2019-04-23T16:10:17.611Z,97910.16
2019-04-23T16:11:33.601Z,97916.03
2019-04-23T16:12:27.742Z,97920.55
2019-04-23T16:13:38.888Z,97927.75
2019-04-23T16:14:40.731Z,97935.06
2019-04-23T16:18:07.923Z,97927.77
2019-04-23T16:19:07.699Z,97928.88
2019-04-23T16:22:36.802Z,97926.42
2019-04-23T16:23:29.120Z,97929.55
2019-04-23T16:24:26.596Z,97926.98
2019-04-23T16:25:36.327Z,97927.77
2019-04-23T16:26:55.855Z,97935.54
2019-04-23T16:27:58.100Z,97924.39
2019-04-23T16:30:15.909Z,97935.59
2019-04-23T16:31:20.517Z,97939.86
2019-04-23T16:33:16.412Z,97929.92
2019-04-23T16:34:33.551Z,97934.13
2019-04-23T16:35:51.127Z,97936.69
2019-04-23T16:36:54.685Z,97934.91
2019-04-23T16:38:18.545Z,97934.78
2019-04-23T16:39:09.005Z,97934.56
2019-04-23T16:40:26.469Z,97932.77
2019-04-23T16:41:20.063Z,97929.28
2019-04-23T16:42:23.655Z,97933.99
2019-04-23T16:43:40.842Z,97943.79
2019-04-23T16:44:41.314Z,97938.13
2019-04-23T16:45:42.235Z,97937.31
2019-04-23T16:46:48.580Z,97938.88
2019-04-23T16:47:53.572Z,97941.58
2019-04-23T16:49:12.766Z,97944.55
2019-04-23T16:50:04.552Z,97947.24
2019-04-23T16:54:24.653Z,97926.73
2019-04-23T16:55:34.472Z,97925.59
2019-04-23T16:56:42.790Z,97918.63
2019-04-23T16:57:43.708Z,97917.53
2019-04-23T16:58:54.409Z,97912.34
2019-04-23T17:00:08.267Z,97905.13
2019-04-23T17:02:12.068Z,97906.66
2019-04-23T17:03:19.254Z,97909.13
2019-04-23T17:04:18.239Z,97903.50
2019-04-23T17:05:20.045Z,97905.31
2019-04-23T17:06:24.727Z,97898.98
2019-04-23T17:07:22.198Z,97894.44
2019-04-23T17:09:42.665Z,97892.09
2019-04-23T17:10:53.656Z,97886.43
2019-04-23T17:12:01.631Z,97891.04
2019-04-23T17:13:06.765Z,97894.53
2019-04-23T17:14:09.189Z,97901.42
2019-04-23T17:16:15.368Z,97889.73
2019-04-23T17:17:15.193Z,97894.49
2019-04-23T17:18:24.608Z,97892.93
2019-04-23T17:19:27.924Z,97892.23
2019-04-23T17:21:38.539Z,97895.34
2019-04-23T17:22:46.983Z,97899.84
2019-04-23T17:24:08.103Z,97894.65
2019-04-23T17:25:07.368Z,97897.02
2019-04-23T17:26:13.479Z,97898.93
2019-04-23T17:28:20.247Z,97889.92
2019-04-23T17:29:21.358Z,97880.45
2019-04-23T17:30:28.579Z,97881.91
2019-04-23T17:31:35.160Z,97881.15
2019-04-23T17:32:47.309Z,97878.12
2019-04-23T17:35:11.264Z,97877.42
2019-04-23T17:36:30.937Z,97868.86
2019-04-23T17:37:57.797Z,97876.43
2019-04-23T17:39:52.684Z,97869.66
2019-04-23T17:41:31.173Z,97875.48
2019-04-23T17:43:25.794Z,97875.72
2019-04-23T17:48:13.206Z,97871.20
2019-04-23T17:49:16.398Z,97875.02
2019-04-23T17:50:23.137Z,97888.75
2019-04-23T17:51:21.015Z,97890.10
2019-04-23T17:52:34.899Z,97885.81
2019-04-23T17:55:57.241Z,97891.00
2019-04-23T17:57:01.525Z,97884.33
2019-04-23T17:58:03.434Z,97886.55
2019-04-23T17:59:04.254Z,97891.39
2019-04-23T18:01:24.422Z,97875.77
2019-04-23T18:03:34.703Z,97886.39
2019-04-23T18:04:43.993Z,97888.70
2019-04-23T18:05:46.034Z,97895.13
2019-04-23T18:06:55.915Z,97888.85
2019-04-23T18:08:06.715Z,97896.80
2019-04-23T18:11:16.147Z,97890.40
2019-04-23T18:12:30.773Z,97888.77
2019-04-23T18:13:36.700Z,97886.75
2019-04-23T18:14:31.128Z,97889.02
2019-04-23T18:15:45.911Z,97896.63
2019-04-23T18:17:00.758Z,97895.47
2019-04-23T18:17:54.699Z,97891.55
2019-04-23T18:19:07.788Z,97889.84
2019-04-23T18:20:16.679Z,97885.91
2019-04-23T18:21:44.618Z,97887.34
2019-04-23T18:22:42.191Z,97887.81
2019-04-23T18:24:13.468Z,97879.53
2019-04-23T18:25:39.509Z,97874.73
2019-04-23T18:27:50.883Z,97872.52
2019-04-23T18:29:07.014Z,97866.20
2019-04-23T18:31:20.103Z,97873.54
2019-04-23T18:33:01.716Z,97869.58
2019-04-23T18:34:03.651Z,97866.44
2019-04-23T18:34:59.653Z,97856.56
2019-04-23T18:35:40.374Z,97845.62
2019-04-23T18:36:59.660Z,97845.62
2019-04-23T18:37:58.505Z,97845.86
2019-04-23T18:39:06.766Z,97845.86
2019-04-23T18:40:05.207Z,97841.89
2019-04-23T18:41:15.749Z,97839.78
2019-04-23T18:42:34.424Z,97841.92
2019-04-23T18:44:38.321Z,97840.84
2019-04-23T18:46:42.167Z,97841.96
2019-04-23T18:48:52.791Z,97850.97
2019-04-23T18:50:03.760Z,97849.06
2019-04-23T18:51:16.024Z,97849.30
2019-04-23T18:52:14.537Z,97851.87
2019-04-23T18:53:22.752Z,97853.02
2019-04-23T18:54:24.737Z,97853.41
2019-04-23T18:55:58.890Z,97868.98
2019-04-23T18:56:59.497Z,97859.67
2019-04-23T18:57:55.299Z,97860.25
2019-04-23T18:59:00.988Z,97865.45
2019-04-23T18:59:57.339Z,97865.67
2019-04-23T19:01:05.141Z,97867.58
2019-04-23T19:02:44.893Z,97862.30
2019-04-23T19:04:11.283Z,97866.59
2019-04-23T19:05:10.603Z,97859.48
2019-04-23T19:07:45.121Z,97867.44
2019-04-23T19:10:32.127Z,97866.63
2019-04-23T19:11:44.326Z,97869.20
2019-04-23T19:12:44.385Z,97867.42
2019-04-23T19:13:44.672Z,97874.37
2019-04-23T19:14:56.117Z,97877.55
2019-04-23T19:15:45.867Z,97872.14
2019-04-23T19:18:04.183Z,97873.94
2019-04-23T19:19:33.605Z,97872.09
2019-04-23T19:22:36.359Z,97868.71
2019-04-23T19:23:42.835Z,97876.93
2019-04-23T19:24:46.743Z,97876.41
2019-04-23T19:25:46.761Z,97884.94
2019-04-23T19:28:10.409Z,97888.78
2019-04-23T19:30:14.116Z,97894.18
2019-04-23T19:31:27.584Z,97896.32
2019-04-23T19:32:14.172Z,97894.18
2019-04-23T19:33:36.657Z,97900.45
2019-04-23T19:34:40.794Z,97901.57
2019-04-23T19:37:55.627Z,97895.20
2019-04-23T19:39:03.220Z,97897.66
2019-04-23T19:40:00.251Z,97904.67
2019-04-23T19:41:12.911Z,97900.34
2019-04-23T19:42:29.958Z,97900.89
2019-04-23T19:43:19.102Z,97904.70
2019-04-23T19:44:24.998Z,97903.09
2019-04-23T19:45:40.431Z,97904.95
2019-04-23T19:46:48.995Z,97907.20
2019-04-23T19:47:55.954Z,97914.63
2019-04-23T19:49:05.759Z,97920.81
2019-04-23T19:50:03.699Z,97908.75
2019-04-23T19:52:00.918Z,97922.05
2019-04-23T19:53:32.368Z,97924.31
2019-04-23T19:54:35.932Z,97933.05
2019-04-23T19:55:21.458Z,97927.29
2019-04-23T19:56:29.203Z,97930.34
2019-04-23T19:57:37.623Z,97935.70
2019-04-23T19:58:46.972Z,97931.51
2019-04-23T19:59:45.157Z,97943.41
2019-04-23T20:01:03.684Z,97937.45
2019-04-23T20:01:58.893Z,97952.41
2019-04-23T20:04:18.088Z,97956.30
2019-04-23T20:05:07.270Z,97966.10
2019-04-23T20:06:26.697Z,97970.59
2019-04-23T20:07:22.428Z,97969.59
2019-04-23T20:08:41.205Z,97974.66
2019-04-23T20:09:43.807Z,97971.33
2019-04-23T20:10:39.806Z,97969.98
2019-04-23T20:11:53.285Z,97965.93
2019-04-23T20:12:51.755Z,97960.11
2019-04-23T20:14:58.261Z,97950.70
2019-04-23T20:16:10.893Z,97957.22
2019-04-23T20:18:26.912Z,97956.78
2019-04-23T20:19:30.108Z,97946.78
2019-04-23T20:20:35.300Z,97941.45
2019-04-23T20:21:38.885Z,97950.23
2019-04-23T20:22:50.763Z,97951.58
2019-04-23T20:24:04.769Z,97955.16
2019-04-23T20:27:13.995Z,97949.99
2019-04-23T20:28:24.152Z,97952.17
2019-04-23T20:33:20.902Z,97958.81
2019-04-23T20:34:11.455Z,97964.45
2019-04-23T20:35:06.624Z,97953.25
2019-04-23T20:36:14.646Z,97963.48
2019-04-23T20:37:05.563Z,97957.62
2019-04-23T20:39:39.713Z,97958.37
2019-04-23T20:40:34.503Z,97954.52
2019-04-23T20:42:07.878Z,97952.05
2019-04-23T20:42:54.927Z,97952.38
2019-04-23T20:44:01.782Z,97952.25
2019-04-23T20:45:05.992Z,97952.25
2019-04-23T20:48:25.302Z,97960.83
2019-04-23T20:49:40.178Z,97966.59
2019-04-23T20:50:34.490Z,97962.69
2019-04-23T20:51:41.313Z,97966.34
2019-04-23T20:52:41.164Z,97977.61
2019-04-23T20:53:55.329Z,97972.89
2019-04-23T20:55:08.111Z,97979.40
2019-04-23T20:57:42.931Z,97983.69
2019-04-23T20:59:43.811Z,97971.06
2019-04-23T21:00:57.146Z,97966.70
2019-04-23T21:02:15.170Z,97975.43
2019-04-23T21:04:37.834Z,97975.30
2019-04-23T21:06:39.774Z,97970.23
2019-04-23T21:07:54.026Z,97963.48
2019-04-23T21:09:05.721Z,97954.95
2019-04-23T21:10:01.399Z,97946.38
2019-04-23T21:10:51.107Z,97940.06
2019-04-23T21:12:04.934Z,97942.95
2019-04-23T21:14:53.977Z,97938.99
2019-04-23T21:15:24.144Z,97934.70
2019-04-23T21:16:25.139Z,97919.94
2019-04-23T21:17:42.380Z,97919.94
2019-04-23T21:18:37.062Z,97933.04
2019-04-23T21:19:50.472Z,97933.52
2019-04-23T21:20:40.122Z,97937.01
2019-04-23T21:22:09.292Z,97939.47
2019-04-23T21:23:14.562Z,97951.24
2019-04-23T21:24:16.902Z,97950.81
2019-04-23T21:25:27.915Z,97953.27
2019-04-23T21:26:30.728Z,97948.98
2019-04-23T21:29:58.516Z,97971.42
2019-04-23T21:32:09.244Z,97977.98
2019-04-23T21:36:37.654Z,97980.25
2019-04-23T21:39:12.058Z,97988.16
2019-04-23T21:40:45.086Z,97990.19
2019-04-23T21:42:58.939Z,97987.13
2019-04-23T21:46:05.997Z,97997.53
2019-04-23T21:47:25.268Z,97997.53
2019-04-23T21:48:15.466Z,98003.11
2019-04-23T21:49:25.252Z,97997.52
2019-04-23T21:52:36.165Z,98012.19
2019-04-23T21:53:50.694Z,98010.84
2019-04-23T21:54:43.075Z,98007.66
2019-04-23T21:57:08.803Z,98017.69
2019-04-23T21:59:07.331Z,98021.86
2019-04-23T22:00:14.168Z,98016.78
2019-04-23T22:02:32.219Z,98025.91
2019-04-23T22:04:00.594Z,98037.80
2019-04-23T22:05:49.665Z,98046.55
2019-04-23T22:06:47.979Z,98055.08
2019-04-23T22:09:10.404Z,98060.30
2019-04-23T22:10:11.685Z,98059.19
2019-04-23T22:11:37.600Z,98057.60
2019-04-23T22:12:15.043Z,98063.00
2019-04-23T22:13:29.405Z,98058.89
2019-04-23T22:15:46.516Z,98063.70
2019-04-23T22:16:52.024Z,98058.13
2019-04-23T22:17:44.352Z,98046.17
2019-04-23T22:19:05.678Z,98059.23
2019-04-23T22:20:04.060Z,98048.12
2019-04-23T22:21:06.558Z,98054.37
2019-04-23T22:22:02.553Z,98046.45
2019-04-23T22:23:33.829Z,98046.94
2019-04-23T22:24:13.382Z,98043.14
2019-04-23T22:25:27.775Z,98039.51
2019-04-23T22:27:38.405Z,98033.70
2019-04-23T22:28:52.786Z,98040.92
2019-04-23T22:29:45.447Z,98049.16
2019-04-23T22:30:55.041Z,98049.80
2019-04-23T22:31:51.275Z,98050.53
2019-04-23T22:33:09.491Z,98051.39
2019-04-23T22:34:22.273Z,98051.39
2019-04-23T22:35:10.728Z,98048.39
2019-04-23T22:36:22.823Z,98048.39
2019-04-23T22:37:25.388Z,98051.18
2019-04-23T22:38:37.659Z,98051.18
2019-04-23T22:39:39.907Z,98055.31
2019-04-23T22:40:49.703Z,98055.31
2019-04-23T22:42:10.238Z,98033.84